Strona główna
METAR-TAF:

Lotnisko :

Katowice, Polska

Port lotniczy Katowice-Pyrzowice

Szerokość geograficzna: 50-28-27N, Długość geograficzna: 019-04-48E, wysokość: 284 m

Aktualna obserwacja pogody

Raport powstał 41 minut temu, godzina 20:00 UTC
Wiatr 1 kt z kierunków zmiennych
Temperatura 9°C
Wilgotność 87%
Ciśnienie 1025 hPa
Widzialność 10 km lub więcej
Brak chmur poniżej 1500 m i brak chmur cumulonimbus

METAR: EPKT 302000Z VRB01KT CAVOK 09/07 Q1025

czas: 22:41 (20:41 UTC)

Prognoza

Raport powstał 3 godziny i 11 minut temu, godzina 17:30 UTC
Prognoza ważna od 30 godzina 18 UTC do 31 godzina 18 UTC
Wiatr 13 kt od północny zachód
Widzialność 10 km lub więcej
Brak chmur poniżej 1500 m i brak chmur cumulonimbus
Stopniowe zmiany
od 30 godzina 18 UTC do 30 godzina 21 UTC
Wiatr 2 kt z kierunków zmiennych

TAF: EPKT 301730Z 3018/3118 32013KT CAVOK BECMG 3018/3021 VRB02KT

METAR-TAF

Obserwacja i prognoza pogody dla ponad 4000 lotnisk (raport METAR i TAF).

Dostępne stacje oznaczono żółtymi i czerwonymi punktami na mapie.

Najedź kursorem aby zobaczyć nazwę stacji.

Kliknij aby zobaczyć obserwacje i prognozy pogody.

Aby zmienić mapę: kliknij na zielony przycisk z czarnym krzyżykiem, aby powiększyć; na zielony przycisk z myślnikiem, aby pomniejszyć; na zielone strzałki, aby przejść do map sąsiednich.


METAR-TAF: